Time;durP1;ratioP1;P1;durP2;ratioP2;P2;SDS_P1;SDS_P2;PMS_P1;PMS_P2;Temp;Humidity;BMP_temperature;BMP_pressure;BME280_temperature;BME280_humidity;BME280_pressure;Samples;Min_cycle;Max_cycle;Signal;HPM_P1;HPM_P2
2023/03/29 00:00:34;;;;;;;28.03;12.47;;;;;;;2.63;50.62;100870.81;6157677;22;96932;-86
2023/03/29 00:03:01;;;;;;;32.43;14.30;;;;;;;2.71;50.67;100895.94;6182270;22;101288;-86
2023/03/29 00:05:27;;;;;;;30.50;14.03;;;;;;;3.00;50.85;100920.34;6183665;22;100919;-87
2023/03/29 00:07:53;;;;;;;37.70;15.90;;;;;;;3.00;50.57;100918.63;6209330;22;97187;-87
2023/03/29 00:10:21;;;;;;;35.77;14.13;;;;;;;2.78;50.67;100883.03;6159949;22;97248;-88
2023/03/29 00:12:47;;;;;;;31.77;14.30;;;;;;;2.99;50.67;100928.97;6158072;22;101355;-87
2023/03/29 00:15:12;;;;;;;29.13;13.27;;;;;;;2.88;50.80;100895.16;6163915;22;101366;-86
2023/03/29 00:17:39;;;;;;;36.80;13.57;;;;;;;3.00;50.91;100920.34;6162820;22;97113;-87
2023/03/29 00:20:09;;;;;;;34.10;13.67;;;;;;;2.95;50.79;100922.91;6214691;22;97064;-86
2023/03/29 00:22:38;;;;;;;33.30;14.20;;;;;;;2.93;50.95;100915.09;6163695;22;101214;-86
2023/03/29 00:25:08;;;;;;;28.60;13.13;;;;;;;2.92;50.91;100912.50;6214699;22;98324;-86
2023/03/29 00:27:34;;;;;;;28.60;15.60;;;;;;;2.87;50.94;100894.31;6213880;22;97275;-86
2023/03/29 00:30:01;;;;;;;30.93;14.53;;;;;;;2.92;50.97;100918.56;6214028;22;97327;-86
2023/03/29 00:32:26;;;;;;;33.97;13.70;;;;;;;2.79;51.15;100911.53;6214642;22;101512;-87
2023/03/29 00:34:53;;;;;;;32.00;13.20;;;;;;;2.76;51.34;100919.28;6213531;22;97906;-86
2023/03/29 00:37:19;;;;;;;28.47;13.60;;;;;;;2.79;51.53;100924.50;6214916;22;96839;-87
2023/03/29 00:39:45;;;;;;;30.37;13.70;;;;;;;2.74;51.01;100910.66;6189807;22;97226;-89
2023/03/29 00:42:15;;;;;;;29.43;13.87;;;;;;;2.77;51.02;100912.41;6189217;22;100325;-87
2023/03/29 00:44:59;;;;;;;30.07;13.53;;;;;;;2.64;51.69;100893.28;6189602;22;100602;-86
2023/03/29 00:47:27;;;;;;;33.70;13.03;;;;;;;2.87;51.53;100925.44;6215148;22;96688;-86
2023/03/29 00:49:53;;;;;;;35.30;14.17;;;;;;;2.81;52.05;100920.19;6189094;22;97159;-86
2023/03/29 00:52:20;;;;;;;29.27;13.97;;;;;;;2.60;52.00;100886.34;6238199;22;98492;-86
2023/03/29 00:54:48;;;;;;;29.37;13.70;;;;;;;2.76;51.90;100913.25;6188513;22;101908;-88
2023/03/29 00:57:14;;;;;;;32.73;13.57;;;;;;;2.72;51.98;100918.41;6188726;22;97266;-86
2023/03/29 00:59:41;;;;;;;27.10;11.77;;;;;;;2.68;51.90;100895.94;6164100;22;96985;-86
2023/03/29 01:02:07;;;;;;;26.77;12.87;;;;;;;2.74;51.53;100902.88;6188211;22;101205;-89
2023/03/29 01:04:40;;;;;;;28.13;12.13;;;;;;;2.69;51.75;100907.16;6240972;22;97595;-87
2023/03/29 01:07:16;;;;;;;29.80;12.73;;;;;;;2.56;52.08;100895.84;6189321;22;97078;-87
2023/03/29 01:09:45;;;;;;;28.07;12.07;;;;;;;2.50;52.14;100900.94;6188476;22;97097;-89
2023/03/29 01:12:15;;;;;;;26.23;12.20;;;;;;;2.40;52.64;100884.47;6188401;22;101028;-87
2023/03/29 01:14:47;;;;;;;27.10;12.38;;;;;;;2.47;52.57;100883.69;6159070;22;101365;-86
2023/03/29 01:17:14;;;;;;;28.23;11.90;;;;;;;2.44;52.78;100887.94;6158006;22;97200;-86
2023/03/29 01:19:49;;;;;;;28.13;11.50;;;;;;;2.46;52.92;100894.00;6158893;22;96880;-87
2023/03/29 01:22:14;;;;;;;29.30;12.00;;;;;;;2.37;53.13;100889.63;6158620;22;101724;-86
2023/03/29 01:24:56;;;;;;;28.73;12.93;;;;;;;2.16;53.13;100860.94;6159248;22;101382;-86
2023/03/29 01:27:50;;;;;;;26.60;12.20;;;;;;;2.32;53.06;100882.66;6157393;22;97091;-87
2023/03/29 01:30:31;;;;;;;31.70;13.00;;;;;;;2.29;53.01;100867.94;6159166;22;96700;-86
2023/03/29 01:33:03;;;;;;;30.47;12.07;;;;;;;2.37;53.26;100873.22;6157652;22;100346;-88
2023/03/29 01:35:56;;;;;;;26.13;11.55;;;;;;;2.39;52.97;100876.69;6210647;22;98409;-86
2023/03/29 01:38:30;;;;;;;30.83;12.77;;;;;;;2.30;53.18;100853.28;6184511;22;97272;-87
2023/03/29 01:40:55;;;;;;;33.13;12.93;;;;;;;2.47;52.89;100882.78;6158660;22;96748;-87
2023/03/29 01:43:21;;;;;;;41.70;13.93;;;;;;;2.46;53.01;100881.06;6181419;22;101042;-86
2023/03/29 01:45:54;;;;;;;29.40;12.20;;;;;;;2.38;52.92;100860.25;6157008;22;101751;-88
2023/03/29 01:48:26;;;;;;;30.97;13.40;;;;;;;2.27;53.15;100867.09;6158635;22;97197;-87
2023/03/29 01:50:55;;;;;;;;;;;;;;;2.37;53.51;100871.47;6157836;22;96853;-86
2023/03/29 01:53:29;;;;;;;28.40;12.70;;;;;;;2.35;52.81;100872.31;6157195;22;101264;-86
2023/03/29 01:55:58;;;;;;;26.33;11.87;;;;;;;2.20;53.28;100873.94;6157053;22;101415;-86
2023/03/29 01:58:32;;;;;;;28.73;12.80;;;;;;;2.15;53.24;100847.13;6157508;22;96720;-86
2023/03/29 02:00:59;;;;;;;34.43;13.10;;;;;;;2.29;53.07;100870.53;6156814;22;97061;-87
2023/03/29 02:03:27;;;;;;;28.47;12.30;;;;;;;2.39;52.71;100864.59;6157778;22;100231;-86
2023/03/29 02:05:54;;;;;;;26.10;11.80;;;;;;;2.38;52.61;100870.63;6157756;22;101023;-86
2023/03/29 02:08:21;;;;;;;26.00;11.00;;;;;;;2.18;53.18;100851.44;6209369;22;96673;-87
2023/03/29 02:10:48;;;;;;;22.40;11.00;;;;;;;2.18;52.84;100847.16;6158975;22;96959;-87
2023/03/29 02:13:13;;;;;;;29.00;11.63;;;;;;;2.20;53.42;100871.34;6157965;22;101223;-86
2023/03/29 02:15:39;;;;;;;26.50;11.60;;;;;;;2.24;53.09;100870.53;6176099;22;101118;-86
2023/03/29 02:18:05;;;;;;;27.50;11.37;;;;;;;2.33;52.98;100868.84;6157478;22;97101;-86
2023/03/29 02:20:37;;;;;;;21.40;10.83;;;;;;;2.23;53.02;100862.72;6158559;22;96904;-87
2023/03/29 02:23:17;;;;;;;24.10;11.25;;;;;;;2.05;53.01;100868.59;6183411;22;98161;-87
2023/03/29 02:25:44;;;;;;;22.43;10.37;;;;;;;1.91;53.49;100872.78;6184684;22;101469;-89
2023/03/29 02:28:10;;;;;;;26.87;10.97;;;;;;;1.94;53.78;100875.41;6183387;22;96655;-88
2023/03/29 02:30:46;;;;;;;23.83;10.70;;;;;;;1.78;54.21;100857.13;6159205;22;96797;-88
2023/03/29 02:33:59;;;;;;;25.83;10.23;;;;;;;1.81;53.85;100858.88;6180705;22;101096;-86
2023/03/29 02:36:51;;;;;;;21.77;9.90;;;;;;;1.54;53.42;100799.91;6205552;22;100423;-86
2023/03/29 02:39:17;;;;;;;28.60;11.77;;;;;;;1.76;54.36;100861.41;6159083;22;97052;-86
2023/03/29 02:41:45;;;;;;;28.03;10.40;;;;;;;1.75;54.66;100854.50;6158872;22;97042;-87
2023/03/29 02:44:15;;;;;;;25.10;10.57;;;;;;;1.89;54.24;100851.19;6208068;22;101448;-86
2023/03/29 02:46:42;;;;;;;25.63;11.27;;;;;;;1.98;53.97;100848.72;6182827;22;101418;-89
2023/03/29 02:49:11;;;;;;;29.93;10.37;;;;;;;1.91;54.04;100850.34;6181261;22;97106;-89
2023/03/29 02:51:37;;;;;;;25.73;10.17;;;;;;;1.85;53.90;100849.44;6183966;22;96847;-86
2023/03/29 02:54:10;;;;;;;24.30;11.33;;;;;;;1.90;54.25;100843.44;6182461;22;100859;-87
2023/03/29 02:56:45;;;;;;;27.17;10.37;;;;;;;1.88;54.64;100844.28;6209277;22;101524;-88
2023/03/29 02:59:11;;;;;;;29.33;11.17;;;;;;;1.95;54.42;100839.19;6184843;22;96688;-88
2023/03/29 03:01:43;;;;;;;32.10;12.33;;;;;;;1.84;54.25;100824.41;6185143;22;97159;-87
2023/03/29 03:04:10;;;;;;;30.60;11.20;;;;;;;1.97;54.07;100841.78;6183803;22;100457;-86
2023/03/29 03:06:39;;;;;;;29.80;12.67;;;;;;;2.00;54.49;100828.84;6182671;22;101239;-86
2023/03/29 03:09:04;;;;;;;22.37;10.97;;;;;;;1.97;54.47;100831.41;6159175;22;97058;-86
2023/03/29 03:11:33;;;;;;;32.53;12.60;;;;;;;2.06;54.00;100826.31;6209824;22;97120;-86
2023/03/29 03:13:59;;;;;;;29.67;13.17;;;;;;;2.13;53.73;100829.84;6185646;22;100980;-86
2023/03/29 03:16:25;;;;;;;32.93;13.67;;;;;;;2.03;54.22;100815.94;6190054;22;101102;-86
2023/03/29 03:18:52;;;;;;;28.07;12.10;;;;;;;1.95;53.57;100830.53;6189581;22;96639;-91
2023/03/29 03:21:18;;;;;;;36.80;12.40;;;;;;;1.82;54.10;100798.47;6190085;22;97171;-87
2023/03/29 03:23:46;;;;;;;32.33;11.80;;;;;;;2.01;54.28;100820.25;6187399;22;101221;-87
2023/03/29 03:26:12;;;;;;;40.00;14.63;;;;;;;2.01;54.66;100822.84;6163898;22;101224;-86
2023/03/29 03:28:39;;;;;;;28.23;11.70;;;;;;;1.98;54.26;100815.03;6189853;22;97261;-88
2023/03/29 03:31:09;;;;;;;41.20;12.67;;;;;;;1.92;54.67;100815.84;6190234;22;97247;-87
2023/03/29 03:33:55;;;;;;;42.90;13.60;;;;;;;2.00;54.57;100814.16;6216416;22;98567;-87
2023/03/29 03:36:36;;;;;;;34.47;13.90;;;;;;;1.86;54.58;100795.06;6192494;22;101272;-87
2023/03/29 03:39:04;;;;;;;30.53;13.37;;;;;;;1.88;55.18;100790.75;6163247;22;97181;-86
2023/03/29 03:41:31;;;;;;;33.80;14.30;;;;;;;1.94;54.76;100803.75;6215837;22;97114;-87
2023/03/29 03:43:57;;;;;;;31.80;12.87;;;;;;;1.87;54.55;100789.03;6188427;22;101258;-87
2023/03/29 03:46:23;;;;;;;32.87;14.73;;;;;;;1.92;54.45;100787.38;6163870;22;101392;-87
2023/03/29 03:48:49;;;;;;;39.90;14.23;;;;;;;1.90;54.75;100794.25;6189387;22;97096;-89
2023/03/29 03:51:27;;;;;;;34.40;14.67;;;;;;;1.86;55.05;100787.28;6192244;22;96749;-87
2023/03/29 03:53:53;;;;;;;37.23;13.93;;;;;;;1.95;54.87;100787.41;6188638;22;101626;-88
2023/03/29 03:56:30;;;;;;;37.37;11.97;;;;;;;1.88;54.90;100787.31;6191503;22;97811;-87
2023/03/29 03:59:13;;;;;;;29.53;12.30;;;;;;;1.76;54.94;100767.38;6239989;22;97231;-88
2023/03/29 04:01:49;;;;;;;37.33;13.27;;;;;;;1.88;54.57;100788.19;6213322;22;97128;-90
2023/03/29 04:04:19;;;;;;;35.53;13.80;;;;;;;1.81;54.72;100757.94;6163591;22;100415;-89
2023/03/29 04:07:11;;;;;;;31.08;12.23;;;;;;;1.86;55.55;100792.47;6216525;22;98222;-86
2023/03/29 04:09:37;;;;;;;28.20;11.67;;;;;;;1.71;55.27;100767.31;6190516;22;96738;-89
2023/03/29 04:12:23;;;;;;;36.47;11.90;;;;;;;1.87;55.18;100777.81;6217575;22;97096;-88
2023/03/29 04:14:49;;;;;;;30.23;11.63;;;;;;;1.89;54.88;100778.69;6186759;22;101054;-86
2023/03/29 04:17:19;;;;;;;34.53;12.40;;;;;;;1.71;55.05;100756.97;6214964;22;101693;-86
2023/03/29 04:20:00;;;;;;;45.10;11.80;;;;;;;1.94;54.77;100777.00;6218300;22;97155;-86
2023/03/29 04:22:29;;;;;;;27.00;11.00;;;;;;;1.99;55.04;100781.38;6190432;22;97183;-86
2023/03/29 04:24:55;;;;;;;25.97;10.47;;;;;;;1.99;54.55;100772.75;6214552;22;98365;-86
2023/03/29 04:27:44;;;;;;;28.23;10.63;;;;;;;1.92;54.46;100770.94;6211494;22;97761;-88
2023/03/29 04:30:35;;;;;;;;;;;;;;;1.92;54.05;100771.84;6198745;22;96902;-88
2023/03/29 04:33:18;;;;;;;26.48;10.77;;;;;;;1.88;55.18;100771.78;6196518;22;97325;-90
2023/03/29 04:35:49;;;;;;;22.13;10.07;;;;;;;1.88;54.63;100766.59;6214920;22;101181;-89
2023/03/29 04:38:16;;;;;;;25.23;10.20;;;;;;;1.87;54.54;100776.09;6189201;22;101541;-88
2023/03/29 04:40:43;;;;;;;25.23;10.70;;;;;;;1.89;54.71;100764.03;6189630;22;97416;-88
2023/03/29 04:43:30;;;;;;;27.20;10.73;;;;;;;1.96;54.67;100777.91;6193193;22;97102;-87
2023/03/29 04:46:18;;;;;;;27.57;11.00;;;;;;;1.78;54.98;100771.72;6204232;22;99036;-88
2023/03/29 04:49:03;;;;;;;35.63;11.77;;;;;;;1.84;55.16;100781.25;6217181;22;97476;-88
2023/03/29 04:51:34;;;;;;;33.45;12.85;;;;;;;1.88;54.92;100776.97;6189679;22;96958;-88
2023/03/29 04:54:01;;;;;;;37.43;12.87;;;;;;;1.95;54.77;100784.81;6189567;22;97049;-88
2023/03/29 04:56:26;;;;;;;36.73;13.60;;;;;;;1.87;54.23;100770.91;6189213;22;101658;-88
2023/03/29 04:59:15;;;;;;;32.27;12.50;;;;;;;1.92;55.25;100777.00;6183403;22;98224;-88
2023/03/29 05:01:41;;;;;;;36.57;13.20;;;;;;;1.87;54.79;100781.28;6162519;22;96736;-89
2023/03/29 05:04:06;;;;;;;32.27;12.53;;;;;;;1.91;54.90;100788.19;6186189;22;97511;-88
2023/03/29 05:06:39;;;;;;;30.75;11.82;;;;;;;1.92;55.14;100786.47;6163986;22;99832;-90
2023/03/29 05:09:07;;;;;;;31.70;11.87;;;;;;;1.94;54.96;100783.06;6162276;22;100965;-88
2023/03/29 05:11:53;;;;;;;25.70;11.97;;;;;;;2.03;55.17;100782.25;6239638;22;97288;-88
2023/03/29 05:14:20;;;;;;;28.27;12.10;;;;;;;2.03;54.94;100771.91;6190079;22;97365;-88
2023/03/29 05:16:46;;;;;;;33.57;11.83;;;;;;;2.14;54.81;100770.25;6188783;22;101176;-88
2023/03/29 05:19:11;;;;;;;23.93;10.13;;;;;;;2.19;54.06;100776.34;6214015;22;99948;-87
2023/03/29 05:21:41;;;;;;;26.23;10.00;;;;;;;2.17;54.50;100765.09;6188818;22;96659;-88
2023/03/29 05:24:11;;;;;;;30.70;9.77;;;;;;;2.31;54.22;100780.75;6214904;22;97375;-88
2023/03/29 05:26:51;;;;;;;23.73;10.13;;;;;;;2.40;54.24;100770.44;6195746;22;98253;-88
2023/03/29 05:29:17;;;;;;;23.40;9.00;;;;;;;2.44;54.53;100767.03;6189329;22;101467;-88
2023/03/29 05:31:48;;;;;;;20.03;9.07;;;;;;;2.59;53.48;100770.53;6191061;22;96855;-88
2023/03/29 05:34:14;;;;;;;19.83;8.10;;;;;;;2.67;53.18;100768.88;6168444;22;97148;-88
2023/03/29 05:36:45;;;;;;;22.97;8.77;;;;;;;2.80;52.84;100765.50;6164344;22;99774;-88
2023/03/29 05:39:11;;;;;;;25.50;8.47;;;;;;;2.69;53.09;100762.84;6168517;22;100928;-86
2023/03/29 05:41:40;;;;;;;19.70;8.57;;;;;;;2.64;52.91;100751.56;6162081;22;96785;-91
2023/03/29 05:44:24;;;;;;;21.53;8.60;;;;;;;2.61;53.44;100761.94;6218395;22;96676;-87
2023/03/29 05:46:57;;;;;;;16.27;7.75;;;;;;;2.71;53.70;100766.31;6188615;22;101484;-88
2023/03/29 05:49:22;;;;;;;16.23;7.87;;;;;;;2.85;53.55;100763.81;6164197;22;100964;-87
2023/03/29 05:51:57;;;;;;;19.73;7.23;;;;;;;2.99;53.15;100766.44;6166640;22;96661;-87
2023/03/29 05:54:25;;;;;;;17.60;7.53;;;;;;;3.12;52.93;100759.56;6163677;22;96785;-87
2023/03/29 05:56:52;;;;;;;15.90;7.63;;;;;;;3.18;52.27;100760.44;6163031;22;101366;-87
2023/03/29 05:59:18;;;;;;;16.53;8.63;;;;;;;3.28;52.68;100765.66;6186860;22;100937;-87
2023/03/29 06:01:47;;;;;;;17.23;7.57;;;;;;;3.27;52.47;100749.25;6161883;22;97205;-87
2023/03/29 06:04:16;;;;;;;;;;;;;;;3.39;52.18;100749.25;6189134;22;97041;-86
2023/03/29 06:06:51;;;;;;;20.43;7.77;;;;;;;3.38;51.86;100737.16;6190259;22;101861;-87
2023/03/29 06:09:18;;;;;;;15.97;7.80;;;;;;;3.68;51.57;100750.19;6188149;22;97988;-86
2023/03/29 06:12:00;;;;;;;19.63;7.90;;;;;;;3.67;51.69;100744.13;6191518;22;96718;-87
2023/03/29 06:14:28;;;;;;;20.17;6.97;;;;;;;3.73;51.24;100738.06;6187352;22;97447;-87
2023/03/29 06:17:05;;;;;;;17.30;7.90;;;;;;;3.85;51.03;100733.72;6189430;22;101821;-86
2023/03/29 06:19:31;;;;;;;15.47;8.13;;;;;;;4.13;50.73;100740.63;6236861;22;98564;-87
2023/03/29 06:21:56;;;;;;;18.13;6.90;;;;;;;4.12;50.34;100734.59;6160563;22;97217;-87
2023/03/29 06:24:25;;;;;;;14.43;7.10;;;;;;;4.13;50.70;100748.44;6213056;22;97239;-86
2023/03/29 06:26:58;;;;;;;20.90;7.13;;;;;;;4.22;50.37;100744.13;6189670;22;101952;-86
2023/03/29 06:29:24;;;;;;;16.87;6.83;;;;;;;4.28;50.24;100733.69;6187693;22;98005;-87
2023/03/29 06:31:50;;;;;;;17.43;7.03;;;;;;;4.36;50.23;100738.88;6213952;22;97053;-86
2023/03/29 06:34:36;;;;;;;16.27;7.37;;;;;;;4.38;49.39;100703.34;6196030;22;96960;-90
2023/03/29 06:37:20;;;;;;;14.67;6.57;;;;;;;4.65;49.54;100737.94;6191945;22;100096;-89
2023/03/29 06:39:55;;;;;;;15.50;6.90;;;;;;;4.54;49.75;100718.03;6214923;22;101318;-90
2023/03/29 06:42:29;;;;;;;15.10;6.60;;;;;;;4.73;49.86;100739.63;6214495;22;97335;-84
2023/03/29 06:45:30;;;;;;;15.33;6.17;;;;;;;4.63;49.75;100718.88;6220995;22;98215;-89
2023/03/29 06:47:58;;;;;;;12.73;6.13;;;;;;;4.85;49.25;100735.28;6213184;22;101485;-89
2023/03/29 06:50:24;;;;;;;16.40;5.80;;;;;;;4.87;49.66;100731.78;6213412;22;101714;-86
2023/03/29 06:53:10;;;;;;;18.53;6.67;;;;;;;4.96;49.50;100721.34;6195842;22;97518;-94
2023/03/29 06:55:37;;;;;;;14.57;6.37;;;;;;;5.04;49.24;100710.03;6198254;22;96982;-96
2023/03/29 06:58:23;;;;;;;12.33;6.07;;;;;;;5.07;49.94;100716.09;6220859;22;101518;-93
2023/03/29 07:00:48;;;;;;;12.13;5.27;;;;;;;5.14;49.58;100709.97;6217100;22;101394;-91
2023/03/29 07:03:22;;;;;;;16.37;5.17;;;;;;;5.34;49.41;100717.66;6196749;22;96926;-93
2023/03/29 07:05:51;;;;;;;12.53;5.10;;;;;;;5.22;49.12;100689.97;6198503;22;97221;-89
2023/03/29 07:08:19;;;;;;;12.53;5.00;;;;;;;5.42;49.17;100721.09;6218965;22;101409;-93
2023/03/29 07:10:57;;;;;;;11.70;5.60;;;;;;;5.38;49.06;100702.88;6191470;22;101497;-91
2023/03/29 07:13:34;;;;;;;15.73;6.03;;;;;;;5.48;49.43;100724.53;6215197;22;97042;-91
2023/03/29 07:16:03;;;;;;;15.30;6.70;;;;;;;5.59;49.40;100733.13;6212342;22;97087;-96
2023/03/29 07:18:40;;;;;;;14.33;6.40;;;;;;;5.60;49.28;100708.81;6199105;22;99566;-96
2023/03/29 07:21:07;;;;;;;10.43;5.30;;;;;;;5.84;49.15;100728.59;6202316;22;100076;-95
2023/03/29 07:23:32;;;;;;;15.33;6.23;;;;;;;5.90;49.15;100728.53;6220108;22;96591;-85
2023/03/29 07:25:58;;;;;;;13.00;5.63;;;;;;;5.59;49.81;100678.44;6180650;22;99155;-89
2023/03/29 07:28:25;;;;;;;14.83;5.60;;;;;;;5.66;49.53;100660.13;6141556;22;98619;-86
2023/03/29 07:33:51;;;;;;;15.60;5.23;;;;;;;6.34;47.34;100644.75;6257327;22;98947;-94
2023/03/29 07:39:05;;;;;;;10.90;4.70;;;;;;;7.21;45.74;100663.59;6240771;22;99570;-93
2023/03/29 07:41:35;;;;;;;10.23;4.30;;;;;;;7.21;45.47;100650.56;6201996;22;98648;-87
2023/03/29 07:44:10;;;;;;;11.97;5.03;;;;;;;7.61;45.62;100706.53;6183333;22;96480;-89
2023/03/29 07:57:28;;;;;;;12.93;5.05;;;;;;;7.62;44.96;100637.69;6225748;22;97810;-87
2023/03/29 07:59:56;;;;;;;9.98;4.00;;;;;;;8.00;44.21;100644.88;6187943;22;99923;-91
2023/03/29 08:02:28;;;;;;;14.87;4.00;;;;;;;8.28;43.67;100676.59;6214263;22;99562;-87
2023/03/29 08:13:06;;;;;;;7.47;3.23;;;;;;;8.60;42.61;100665.53;6284687;22;97191;-95
2023/03/29 08:15:46;;;;;;;10.02;4.10;;;;;;;8.81;42.71;100659.00;6200187;22;97231;-90
2023/03/29 08:18:21;;;;;;;7.95;3.78;;;;;;;9.20;42.35;100686.97;6199094;22;96837;-88
2023/03/29 08:20:47;;;;;;;10.82;4.15;;;;;;;9.30;42.07;100688.47;6192966;22;100230;-86
2023/03/29 08:23:12;;;;;;;8.68;4.03;;;;;;;9.50;42.32;100698.47;6219027;22;101178;-86
2023/03/29 08:25:50;;;;;;;9.05;3.97;;;;;;;9.62;42.08;100686.84;6225855;22;96979;-87
2023/03/29 08:28:17;;;;;;;9.18;3.72;;;;;;;9.60;42.22;100692.16;6193667;22;97164;-86
2023/03/29 08:30:46;;;;;;;9.52;4.28;;;;;;;9.96;41.60;100673.75;6193576;22;101166;-86
2023/03/29 08:33:12;;;;;;;8.63;4.50;;;;;;;10.01;41.03;100673.66;6219738;22;101333;-86
2023/03/29 08:35:38;;;;;;;9.57;3.83;;;;;;;10.13;40.77;100686.44;6220239;22;97336;-86
2023/03/29 08:38:13;;;;;;;12.00;3.60;;;;;;;10.31;40.71;100677.25;6198692;22;96812;-86
2023/03/29 08:40:40;;;;;;;7.13;3.67;;;;;;;10.90;39.58;100674.66;6194419;22;99935;-86
2023/03/29 08:43:37;;;;;;;8.15;3.50;;;;;;;11.22;39.38;100665.81;6245621;22;101739;-85
2023/03/29 08:46:54;;;;;;;7.15;2.90;;;;;;;11.82;37.42;100656.00;6210838;22;97544;-85
2023/03/29 08:49:29;;;;;;;7.43;3.20;;;;;;;12.16;36.76;100668.88;6220176;22;97291;-79
2023/03/29 08:52:00;;;;;;;7.47;3.25;;;;;;;12.49;37.15;100660.69;6216157;22;100887;-81
2023/03/29 08:54:45;;;;;;;6.47;3.30;;;;;;;13.16;35.34;100657.25;6217860;22;99239;-82
2023/03/29 08:57:31;;;;;;;10.88;3.40;;;;;;;13.62;34.82;100663.38;6245914;22;96857;-82
2023/03/29 09:00:05;;;;;;;7.13;3.22;;;;;;;13.57;35.16;100618.69;6193594;22;96742;-83
2023/03/29 09:02:34;;;;;;;8.02;3.35;;;;;;;14.21;33.90;100625.63;6191926;22;102183;-82
2023/03/29 09:05:13;;;;;;;10.75;3.58;;;;;;;14.77;33.04;100650.44;6217547;22;101521;-82
2023/03/29 09:07:42;;;;;;;6.00;2.87;;;;;;;15.10;32.76;100653.31;6194504;22;97059;-81
2023/03/29 09:10:14;;;;;;;8.00;3.20;;;;;;;14.83;32.42;100634.28;6216893;22;97299;-82
2023/03/29 09:13:00;;;;;;;5.90;3.10;;;;;;;15.12;32.24;100653.22;6216845;22;101851;-82
2023/03/29 09:15:29;;;;;;;7.93;2.88;;;;;;;15.58;32.39;100648.34;6243302;22;101711;-81
2023/03/29 09:18:11;;;;;;;7.30;3.17;;;;;;;15.64;31.79;100650.69;6217899;22;97503;-82
2023/03/29 09:20:55;;;;;;;6.78;3.17;;;;;;;15.88;31.66;100635.38;6215961;22;97204;-80
2023/03/29 09:23:37;;;;;;;7.85;3.33;;;;;;;16.52;30.68;100633.78;6241469;22;100606;-81
2023/03/29 09:26:38;;;;;;;6.90;2.85;;;;;;;16.68;30.83;100633.84;6240854;22;99357;-80
2023/03/29 09:29:54;;;;;;;8.48;3.20;;;;;;;17.41;29.72;100632.41;6244285;22;96887;-79
2023/03/29 09:32:32;;;;;;;7.15;3.28;;;;;;;17.48;29.42;100634.69;6217812;22;96836;-80
2023/03/29 09:35:21;;;;;;;7.15;3.20;;;;;;;17.72;28.72;100624.47;6217392;22;101169;-78
2023/03/29 09:37:48;;;;;;;8.85;3.22;;;;;;;18.01;28.68;100622.75;6191975;22;101485;-79
2023/03/29 09:40:25;;;;;;;7.20;3.15;;;;;;;18.20;28.13;100615.38;6217389;22;96764;-79
2023/03/29 09:43:03;;;;;;;13.90;5.15;;;;;;;17.27;28.96;100613.75;6219560;22;97212;-78
2023/03/29 09:45:30;;;;;;;9.38;3.63;;;;;;;17.10;29.16;100609.41;6216689;22;101284;-78
2023/03/29 09:47:58;;;;;;;8.55;3.58;;;;;;;17.18;29.94;100603.69;6217344;22;100441;-79
2023/03/29 09:50:36;;;;;;;8.23;3.58;;;;;;;17.37;30.26;100595.53;6217293;22;97361;-78
2023/03/29 09:53:06;;;;;;;8.40;3.67;;;;;;;17.18;29.87;100588.59;6242902;22;96616;-79
2023/03/29 09:55:38;;;;;;;7.03;3.80;;;;;;;16.82;30.09;100614.56;6217413;22;100691;-79
2023/03/29 09:58:12;;;;;;;7.20;3.45;;;;;;;16.14;31.31;100604.06;6190668;22;101160;-79
2023/03/29 10:00:43;;;;;;;11.65;3.80;;;;;;;16.14;31.77;100598.75;6215223;22;97656;-79
2023/03/29 10:03:16;;;;;;;7.30;3.65;;;;;;;15.96;31.98;100585.53;6213943;22;97393;-79
2023/03/29 10:05:53;;;;;;;8.10;3.83;;;;;;;15.89;31.70;100585.97;6214038;22;100979;-79
2023/03/29 10:08:27;;;;;;;9.85;3.38;;;;;;;15.65;32.33;100588.03;6189960;22;101576;-79
2023/03/29 10:10:59;;;;;;;5.38;2.58;;;;;;;15.48;31.92;100581.81;6188099;22;97273;-81
2023/03/29 10:13:34;;;;;;;5.95;2.90;;;;;;;15.45;32.07;100571.38;6213687;22;96997;-81
2023/03/29 10:16:08;;;;;;;12.25;3.55;;;;;;;15.08;31.89;100554.69;6240299;22;97427;-80
2023/03/29 10:18:40;;;;;;;6.18;3.28;;;;;;;14.99;32.32;100564.88;6214284;22;100963;-80
2023/03/29 10:21:09;;;;;;;11.75;3.05;;;;;;;14.97;33.00;100564.94;6214089;22;97437;-80
2023/03/29 10:23:36;;;;;;;8.70;3.20;;;;;;;14.78;32.65;100566.75;6213671;22;97193;-83
2023/03/29 10:26:06;;;;;;;8.98;2.92;;;;;;;14.50;32.87;100568.84;6211844;22;101309;-83
2023/03/29 10:28:32;;;;;;;10.73;3.00;;;;;;;14.44;32.41;100563.00;6239815;22;101458;-84
2023/03/29 10:30:59;;;;;;;6.95;3.00;;;;;;;14.14;32.84;100563.50;6214899;22;97318;-82
2023/03/29 10:33:32;;;;;;;8.75;2.70;;;;;;;13.72;33.56;100534.56;6214203;22;97078;-81
2023/03/29 10:35:58;;;;;;;8.70;3.30;;;;;;;13.76;33.74;100555.47;6240256;22;98399;-82
2023/03/29 10:38:27;;;;;;;6.50;2.92;;;;;;;13.55;33.59;100561.66;6213673;22;100852;-82
2023/03/29 10:40:53;;;;;;;5.15;2.83;;;;;;;13.43;34.01;100562.19;6214749;22;97638;-81
2023/03/29 10:43:23;;;;;;;9.27;3.45;;;;;;;13.41;34.34;100566.66;6239766;22;97157;-82
2023/03/29 10:45:51;;;;;;;5.78;3.33;;;;;;;13.27;34.34;100561.97;6190490;22;101766;-81
2023/03/29 10:48:18;;;;;;;9.80;2.95;;;;;;;13.10;34.52;100537.13;6190084;22;101165;-80
2023/03/29 10:50:57;;;;;;;8.88;2.83;;;;;;;13.12;34.67;100540.56;6218067;22;97245;-80
2023/03/29 10:53:29;;;;;;;7.13;3.17;;;;;;;13.10;34.19;100541.53;6216075;22;96820;-80
2023/03/29 10:56:16;;;;;;;4.78;2.63;;;;;;;12.98;35.15;100540.28;6190688;22;102158;-81
2023/03/29 10:58:56;;;;;;;10.63;3.20;;;;;;;13.13;34.80;100551.97;6241789;22;101314;-81
2023/03/29 11:01:31;;;;;;;11.48;3.70;;;;;;;12.85;34.99;100537.25;6188217;22;97202;-82
2023/03/29 11:04:35;;;;;;;6.50;3.10;;;;;;;12.85;34.36;100533.75;6270367;22;96613;-81
2023/03/29 11:07:28;;;;;;;8.55;3.53;;;;;;;12.61;34.64;100528.56;6216506;22;101493;-82
2023/03/29 11:10:27;;;;;;;7.10;2.65;;;;;;;12.71;35.77;100533.44;6241912;22;97858;-81
2023/03/29 11:13:14;;;;;;;6.72;2.58;;;;;;;12.76;35.31;100532.34;6242456;22;97096;-81
2023/03/29 11:15:46;;;;;;;7.38;3.15;;;;;;;12.86;35.34;100527.59;6239418;22;96854;-82
2023/03/29 11:18:29;;;;;;;8.43;2.75;;;;;;;12.81;34.73;100530.41;6215333;22;101282;-80
2023/03/29 11:21:04;;;;;;;6.72;3.55;;;;;;;12.90;34.73;100513.38;6217530;22;101714;-81
2023/03/29 11:23:36;;;;;;;5.55;2.75;;;;;;;12.99;34.68;100518.25;6218008;22;96669;-81
2023/03/29 11:26:21;;;;;;;11.27;3.30;;;;;;;12.95;34.21;100508.78;6218382;22;96974;-80
2023/03/29 11:29:18;;;;;;;6.18;3.20;;;;;;;12.94;34.15;100507.03;6192256;22;101631;-82
2023/03/29 11:32:11;;;;;;;8.80;3.83;;;;;;;12.79;34.09;100499.78;6217190;22;101333;-80
2023/03/29 11:34:58;;;;;;;8.65;3.30;;;;;;;12.75;34.82;100500.81;6215708;22;97200;-82
2023/03/29 11:37:49;;;;;;;8.05;3.17;;;;;;;12.71;34.74;100493.94;6242612;22;97009;-82
2023/03/29 11:40:41;;;;;;;6.47;3.10;;;;;;;12.53;35.12;100485.00;6192494;22;101389;-80
2023/03/29 11:43:27;;;;;;;;;;;;;;;12.15;35.81;100477.66;6215685;22;101579;-84
2023/03/29 11:46:09;;;;;;;5.15;2.95;;;;;;;12.30;34.65;100467.47;6193360;22;97146;-82
2023/03/29 11:48:39;;;;;;;9.23;3.42;;;;;;;12.21;35.64;100466.91;6192772;22;97130;-79
2023/03/29 11:51:23;;;;;;;6.67;3.37;;;;;;;12.17;36.09;100462.69;6243004;22;97949;-83
2023/03/29 11:53:57;;;;;;;9.32;3.80;;;;;;;12.13;36.04;100462.84;6245507;22;101595;-80
2023/03/29 11:56:40;;;;;;;11.00;3.28;;;;;;;12.14;36.25;100452.28;6244200;22;96792;-82
2023/03/29 11:59:12;;;;;;;9.32;3.53;;;;;;;11.98;36.07;100449.38;6217893;22;98014;-82
2023/03/29 12:01:53;;;;;;;8.75;3.17;;;;;;;11.97;36.40;100452.91;6237280;22;97319;-80
2023/03/29 12:04:24;;;;;;;9.50;3.40;;;;;;;11.97;36.19;100444.16;6191325;22;101370;-80
2023/03/29 12:07:03;;;;;;;9.05;3.38;;;;;;;11.92;36.01;100446.97;6212762;22;97243;-81
2023/03/29 12:09:33;;;;;;;8.52;3.55;;;;;;;11.80;35.39;100431.63;6186221;22;97296;-81
2023/03/29 12:12:06;;;;;;;11.43;2.80;;;;;;;11.62;36.22;100437.56;6239441;22;97924;-81